ADDS METAR Data INFO
IDs: Format: Raw Decoded Include TAF

Data at: 1533 UTC 18 Jun 2018

KAVX 181520Z AUTO 26009KT 10SM OVC006 13/12 A3004 RMK AO2 CIG 003V011 T01330117
KAVX 181451Z AUTO 26009KT 9SM OVC003 13/12 A3003 RMK AO2 SLP163 T01280122 53010
KAVX 181359Z AUTO 27010KT 8SM BKN003 OVC011 12/12 A3001 RMK AO2 CIG 002V008 T01220122
KAVX 181351Z AUTO 27007KT 6SM BR BKN005 OVC011 12/12 A3001 RMK AO2 CIG 002V007 SLP157 T01220122
KAVX 181345Z AUTO 25005KT 5SM BR BKN003 BKN008 OVC011 12/12 A3001 RMK AO2 CIG 002V007
KAVX 181319Z AUTO 27005KT 5SM BR FEW002 OVC010 12/12 A3001 RMK AO2 CIG 006V013 T01220122
KAVX 181251Z AUTO 27004KT 5SM BR BKN005 OVC010 12/12 A3000 RMK AO2 CIG 002V008 SLP153 T01220122
KAVX 181248Z AUTO 26004KT 5SM BR BKN005 OVC010 12/12 A3000 RMK AO2 CIG 002V009
KAVX 181151Z AUTO 25004KT 10SM OVC013 12/12 A2999 RMK AO2 SLP150 T01220117 10128 20122 55002
KAVX 181051Z AUTO 29003KT 10SM OVC013 12/12 A2999 RMK AO2 SLP147 T01220117
KAVX 180951Z AUTO 26004KT 10SM OVC013 12/11 A2999 RMK AO2 SLP148 T01220111
KAVX 180940Z AUTO 26005KT 10SM OVC013 12/11 A2999 RMK AO2 T01220111
KAVX 180851Z AUTO 26006KT 10SM FEW004 OVC019 12/12 A3000 RMK AO2 SLP152 T01220117 58006
KAVX 180751Z AUTO 26005KT 10SM BKN015 OVC020 13/09 A3000 RMK AO2 SLP154 T01280094 401500117
KAVX 180651Z AUTO 25003KT 10SM OVC016 13/11 A3001 RMK AO2 SLP157 T01280106
KAVX 180551Z AUTO 25005KT 10SM OVC018 13/11 A3002 RMK AO2 SLP158 T01280106 10139 20122 51010
KAVX 180514Z AUTO 27004KT 10SM OVC015 13/10 A3001 RMK AO2 T01280100
KAVX 180451Z AUTO 29005KT 10SM OVC013 13/11 A3001 RMK AO2 SLP155 T01280111
KAVX 180351Z AUTO 23005KT 10SM FEW005 OVC013 12/12 A2999 RMK AO2 SLP150 T01220117
KAVX 180334Z AUTO 28008KT 10SM SCT007 OVC013 13/12 A2999 RMK AO2 T01280117
KAVX 180319Z AUTO 28007KT 10SM BKN006 OVC016 12/11 A2999 RMK AO2 CIG 005V012 T01220111
KAVX 180251Z AUTO 24008KT 10SM SCT005 OVC017 13/11 A2998 RMK AO2 SLP148 T01280111 51002
KAVX 180246Z AUTO 25009KT 10SM SCT005 OVC015 13/12 A2998 RMK AO2
KAVX 180221Z AUTO 25007KT 10SM BKN005 OVC013 13/12 A2998 RMK AO2 CIG 004V009 T01280117
KAVX 180214Z AUTO 25006KT 10SM SCT005 BKN009 OVC015 13/12 A2998 RMK AO2 CIG 008V013 T01280117
KAVX 180201Z AUTO 24007KT 10SM SCT007 OVC015 13/11 A2998 RMK AO2 T01280111
KAVX 180151Z AUTO 26011KT 10SM BKN007 OVC015 13/11 A2998 RMK AO2 CIG 004V010 SLP146 T01280111
KAVX 180051Z AUTO 26010KT 10SM BKN005 OVC012 13/12 A2998 RMK AO2 SLP145 T01330117
KAVX 180014Z AUTO 25009KT 10SM BKN006 BKN011 OVC020 14/12 A2998 RMK AO2 CIG 005V010 T01390117
KAVX 172351Z AUTO 25008KT 10SM FEW008 FEW016 OVC021 14/12 A2998 RMK AO2 SLP146 T01390117 10150 20128 56002
KAVX 172251Z AUTO 24009KT 10SM FEW015 OVC024 15/11 A2998 RMK AO2 SLP145 T01500106
KAVX 172228Z AUTO 26010KT 10SM SCT010 OVC024 14/11 A2998 RMK AO2 T01440106
KAVX 172219Z AUTO 25009KT 10SM BKN010 OVC024 14/11 A2999 RMK AO2 CIG 008V014 T01440106
KAVX 172151Z AUTO 25009KT 10SM OVC006 14/12 A2999 RMK AO2 CIG 004V010 SLP148 T01390117
KAVX 172118Z AUTO 27008KT 10SM BKN007 OVC015 13/12 A2999 RMK AO2 CIG 004V011 T01330117
KAVX 172110Z AUTO 26009KT 10SM SCT009 OVC015 13/11 A2999 RMK AO2 T01330111
KAVX 172105Z AUTO 24006KT 10SM BKN009 OVC014 13/11 A2999 RMK AO2 CIG 007V013 T01330111
KAVX 172051Z AUTO 26009KT 10SM BKN014 OVC020 14/11 A2999 RMK AO2 SLP149 T01390111 50002
KAVX 172033Z AUTO 26009KT 10SM OVC012 13/11 A2999 RMK AO2 T01330106
KAVX 171951Z AUTO 26008KT 10SM OVC009 13/11 A2999 RMK AO2 CIG 007V012 SLP150 T01330111
KAVX 171943Z AUTO 28007KT 10SM BKN009 OVC013 13/11 A2999 RMK AO2 CIG 007V012 T01330111
KAVX 171851Z AUTO 26008KT 10SM BKN013 OVC018 13/10 A2998 RMK AO2 SLP147 T01330100
KAVX 171849Z AUTO 26008KT 10SM BKN013 OVC018 13/10 A2998 RMK AO2
KAVX 171751Z AUTO 25005KT 10SM OVC017 13/10 A2998 RMK AO2 SLP145 T01330100 10150 20122 51011
KAVX 171651Z AUTO 28004KT 10SM BKN018 OVC027 13/10 A2996 RMK AO2 SLP141 T01330100
KAVX 171551Z AUTO 10SM OVC027 14/09 A2996 RMK AO2 SLP138 T01440089
KAVX 171451Z AUTO 26005KT 10SM OVC025 13/08 A2994 RMK AO2 SLP134 T01280083 53013
KAVX 171351Z AUTO 26005KT 10SM OVC023 12/09 A2993 RMK AO2 SLP129 T01220089
KAVX 171251Z AUTO 00000KT 10SM OVC020 12/09 A2991 RMK AO2 SLP123 T01220094
KAVX 171151Z AUTO 15003KT 10SM OVC017 12/10 A2990 RMK AO2 SLP121 T01220100 10122 20117 53002
KAVX 171132Z AUTO 17004KT 10SM OVC015 12/10 A2990 RMK AO2 T01220100
KAVX 171113Z AUTO 22003KT 10SM OVC014 12/10 A2990 RMK AO2 T01220100
KAVX 171051Z AUTO VRB03KT 10SM OVC015 12/09 A2990 RMK AO2 SLP119 T01220094
KAVX 170951Z AUTO 25003KT 10SM OVC018 12/09 A2989 RMK AO2 SLP113 T01220089
KAVX 170916Z AUTO 00000KT 10SM OVC016 12/11 A2989 RMK AO2 T01220106
KAVX 170851Z AUTO 00000KT 10SM BKN011 OVC014 12/11 A2990 RMK AO2 CIG 007V013 SLP118 T01220106 55000
KAVX 170846Z AUTO 18003KT 10SM OVC011 12/11 A2989 RMK AO2
KAVX 170836Z AUTO 00000KT 10SM OVC009 12/11 A2990 RMK AO2 CIG 007V014 T01220111
KAVX 170758Z AUTO 25003KT 10SM OVC013 12/11 A2990 RMK AO2 T01170106
KAVX 170751Z AUTO 22003KT 10SM FEW009 OVC015 12/11 A2990 RMK AO2 SLP118 T01170106 401560111
KAVX 170701Z AUTO 23005KT 10SM SCT005 OVC012 12/11 A2989 RMK AO2 T01170111
KAVX 170651Z AUTO 00000KT 10SM BKN009 OVC013 12/11 A2989 RMK AO2 CIG 005V011 SLP116 T01220111
KAVX 170614Z AUTO 22003KT 10SM SCT007 OVC011 12/11 A2990 RMK AO2 T01220106
KAVX 170551Z AUTO 21004KT 10SM BKN006 OVC014 12/11 A2989 RMK AO2 CIG 004V009 SLP117 T01220111 10128 20117 51009
KAVX 170459Z AUTO 24005KT 10SM BKN006 OVC013 12/11 A2989 RMK AO2 CIG 004V009 T01220111
KAVX 170455Z AUTO 25005KT 10SM SCT004 OVC011 12/11 A2989 RMK AO2 T01220111
KAVX 170451Z AUTO 23006KT 10SM BKN004 BKN009 OVC013 12/11 A2989 RMK AO2 SLP115 T01220111
KAVX 170401Z AUTO 22004KT 8SM BKN003 BKN010 OVC013 12/12 A2988 RMK AO2 CIG 002V007 T01220117
KAVX 170351Z AUTO 24006KT 7SM SCT004 OVC008 12/12 A2988 RMK AO2 CIG 006V010 SLP111 T01220117
KAVX 170341Z AUTO 22004KT 7SM SCT004 OVC008 12/12 A2987 RMK AO2 T01220117